UTC: 16.05.2022 19:00:00
ilmateenistus.ee keskkonnaagentuur.ee
EETN Tallinn
FTEO31 EETN 161700
TAF EETN 161730Z 1618/1718 29013KT 9999 SCT030 TEMPO 1618/1622
    SCT025CB TEMPO 1706/1713 34016G27KT=

METAR EETN 161850Z 34006KT 310V010 9999 FEW030CB 09/03 Q1015 NOSIG=
Tallinn
EEKA Kärdla
METAR EEKA 161850Z NIL=
Kärdla
EEKE Kuressaare
FCEO32 EETN 161400 AAA
TAF AMD EEKE 161800Z 1615/1621 CNL=

METAR EEKE 161850Z AUTO 33009KT 290V010 9999NDV NCD 07/00 Q1019=
Kuressaare
EEPU Pärnu
METAR EEPU 161850Z AUTO 29006KT 9999 NCD 08/03 Q1016=
Pärnu
EETU Tartu
METAR EETU 161850Z AUTO 29008KT 260V320 9999 FEW055/// OVC090/// 11/01 Q1013=
Tartu
EEEI Ämari
METAR EEEI 161850Z 30008KT CAVOK 08/03 Q1015 NOSIG=
Ämari